Terminal Aerodrome Forecast
Issued by NWS Lake Charles, LA

Home | Current Version | Previous Version | Text Only | Print | Product List | Glossary On
Versions: 1 2 3 4 5 6 7 8 9 10 11 12 13 14 15 16 17 18 19 20 21 22 23
338
FTUS44 KLCH 072320
TAFARA
TAF
KARA 072320Z 0800/0824 05007KT P6SM SCT012 OVC020
     FM080900 02010KT P6SM OVC005
      TEMPO 0810/0814 5SM -RA BR OVC004
     FM081600 02017G27KT P6SM OVC015=

USA.gov is the U.S. government's official web portal to all federal, state and local government web resources and services.